Time;durP1;ratioP1;P1;durP2;ratioP2;P2;SDS_P1;SDS_P2;PMS_P1;PMS_P2;Temp;Humidity;BMP_temperature;BMP_pressure;BME280_temperature;BME280_humidity;BME280_pressure;Samples;Min_cycle;Max_cycle;Signal;HPM_P1;HPM_P2
2024/01/20 00:01:49;;;;;;;24.45;13.52;;;;;;;-8.25;100.00;97562.16;4958427;28;20086;-69
2024/01/20 00:04:15;;;;;;;27.83;13.30;;;;;;;-8.21;100.00;97563.38;4954039;28;20051;-69
2024/01/20 00:06:40;;;;;;;26.17;14.60;;;;;;;-8.19;100.00;97566.59;4960075;28;20043;-70
2024/01/20 00:09:07;;;;;;;23.05;12.20;;;;;;;-8.34;100.00;97566.97;4954466;28;20078;-69
2024/01/20 00:11:32;;;;;;;21.05;12.30;;;;;;;-8.37;100.00;97561.31;4955777;28;20485;-70
2024/01/20 00:13:57;;;;;;;26.35;14.52;;;;;;;-8.47;100.00;97570.66;4957438;28;20065;-70
2024/01/20 00:16:23;;;;;;;25.65;12.60;;;;;;;-8.42;100.00;97564.69;4954400;28;20683;-70
2024/01/20 00:18:48;;;;;;;25.58;13.55;;;;;;;-8.47;100.00;97575.97;4963247;28;20137;-69
2024/01/20 00:21:14;;;;;;;28.17;14.25;;;;;;;-8.03;100.00;97580.28;4955972;28;20043;-70
2024/01/20 00:23:39;;;;;;;27.70;13.32;;;;;;;-7.91;100.00;97578.47;4960791;28;20035;-71
2024/01/20 00:26:04;;;;;;;25.88;13.95;;;;;;;-7.91;100.00;97573.97;4959472;28;20119;-70
2024/01/20 00:28:30;;;;;;;21.60;12.48;;;;;;;-7.83;100.00;97580.84;4960921;28;20043;-70
2024/01/20 00:30:55;;;;;;;25.20;12.88;;;;;;;-7.80;100.00;97577.69;4961465;28;20596;-70
2024/01/20 00:33:20;;;;;;;25.50;12.13;;;;;;;-7.80;100.00;97582.22;4955183;28;20086;-70
2024/01/20 00:35:47;;;;;;;24.90;12.98;;;;;;;-7.75;100.00;97585.81;4944005;28;20046;-70
2024/01/20 00:38:12;;;;;;;24.45;12.40;;;;;;;-7.78;100.00;97591.56;4956677;28;20391;-70
2024/01/20 00:40:38;;;;;;;22.70;11.95;;;;;;;-7.85;100.00;97588.19;4963771;28;20047;-70
2024/01/20 00:43:04;;;;;;;20.85;11.57;;;;;;;-7.98;100.00;97577.75;4977606;28;20043;-70
2024/01/20 00:45:30;;;;;;;21.45;11.95;;;;;;;-8.11;100.00;97579.56;4944616;28;20474;-71
2024/01/20 00:47:55;;;;;;;24.15;12.75;;;;;;;-8.12;100.00;97577.97;4957361;28;20039;-72
2024/01/20 00:50:20;;;;;;;24.45;11.98;;;;;;;-8.08;100.00;97568.50;4955249;28;20496;-70
2024/01/20 00:52:46;;;;;;;23.38;12.27;;;;;;;-7.98;100.00;97572.44;4961378;28;20492;-70
2024/01/20 00:55:12;;;;;;;22.40;12.35;;;;;;;-7.78;100.00;97567.66;4953970;28;20104;-70
2024/01/20 00:57:37;;;;;;;22.00;12.15;;;;;;;-7.75;100.00;97567.19;4957733;28;20062;-70
2024/01/20 01:00:08;;;;;;;21.92;11.48;;;;;;;-7.62;100.00;97566.19;4958369;28;20034;-70
2024/01/20 01:02:34;;;;;;;16.30;10.02;;;;;;;-7.65;100.00;97568.47;4976962;28;20051;-70
2024/01/20 01:05:00;;;;;;;20.88;9.82;;;;;;;-7.56;100.00;97559.97;4959712;28;20093;-71
2024/01/20 01:07:25;;;;;;;19.02;11.10;;;;;;;-7.65;100.00;97564.00;4957264;28;20440;-70
2024/01/20 01:09:50;;;;;;;21.73;9.80;;;;;;;-7.73;100.00;97567.78;4960185;28;20035;-70
2024/01/20 01:12:16;;;;;;;20.45;11.02;;;;;;;-7.76;100.00;97572.75;4956909;28;20142;-70
2024/01/20 01:14:41;;;;;;;19.23;10.38;;;;;;;-7.76;100.00;97564.75;4961981;28;20046;-70
2024/01/20 01:17:07;;;;;;;20.67;10.85;;;;;;;-7.77;100.00;97569.28;4956515;28;20607;-70
2024/01/20 01:19:32;;;;;;;20.10;10.35;;;;;;;-7.74;100.00;97568.84;4960308;28;20086;-70
2024/01/20 01:21:58;;;;;;;26.23;10.60;;;;;;;-7.72;100.00;97571.28;4961442;28;20417;-70
2024/01/20 01:24:23;;;;;;;22.90;10.63;;;;;;;-7.86;100.00;97573.31;4953615;28;20496;-70
2024/01/20 01:26:48;;;;;;;24.58;11.93;;;;;;;-7.90;100.00;97574.81;4960952;28;20214;-70
2024/01/20 01:29:14;;;;;;;18.10;10.43;;;;;;;-7.96;100.00;97576.53;4970239;28;20035;-70
2024/01/20 01:31:39;;;;;;;17.55;10.60;;;;;;;-7.96;100.00;97579.19;4970911;28;20050;-71
2024/01/20 01:34:05;;;;;;;19.15;10.75;;;;;;;-7.83;100.00;97586.16;4955042;28;20125;-70
2024/01/20 01:36:30;;;;;;;18.98;10.98;;;;;;;-7.90;100.00;97585.44;4961258;28;20034;-71
2024/01/20 01:38:55;;;;;;;18.90;9.95;;;;;;;-7.95;100.00;97586.09;4962104;28;20034;-71
2024/01/20 01:41:21;;;;;;;22.33;10.57;;;;;;;-7.98;100.00;97585.75;4957718;28;20043;-71
2024/01/20 01:43:46;;;;;;;19.08;9.85;;;;;;;-7.95;100.00;97585.31;4979883;28;20042;-70
2024/01/20 01:46:13;;;;;;;18.05;9.43;;;;;;;-7.80;100.00;97583.03;4969137;28;20041;-70
2024/01/20 01:48:38;;;;;;;19.58;9.95;;;;;;;-7.63;100.00;97595.66;4951190;28;20047;-70
2024/01/20 01:51:04;;;;;;;15.98;9.50;;;;;;;-7.72;100.00;97595.22;4954807;28;20097;-70
2024/01/20 01:53:34;;;;;;;16.15;9.38;;;;;;;-7.80;100.00;97591.00;4960513;28;20062;-70
2024/01/20 01:56:00;;;;;;;16.40;9.15;;;;;;;-7.92;100.00;97592.84;4955710;28;20058;-69
2024/01/20 01:58:27;;;;;;;19.35;10.48;;;;;;;-7.92;100.00;97587.53;4951704;28;20687;-70
2024/01/20 02:00:53;;;;;;;20.17;9.85;;;;;;;-7.98;100.00;97596.38;4958676;28;20386;-70
2024/01/20 02:03:19;;;;;;;20.73;10.23;;;;;;;-8.11;100.00;97587.53;4952318;28;20171;-70
2024/01/20 02:05:44;;;;;;;20.55;11.20;;;;;;;-8.14;100.00;97580.03;4960773;28;20159;-70
2024/01/20 02:08:10;;;;;;;19.40;10.82;;;;;;;-8.15;100.00;97578.41;4956769;28;20038;-70
2024/01/20 02:10:38;;;;;;;16.48;9.70;;;;;;;-8.19;100.00;97568.44;4949999;28;20050;-70
2024/01/20 02:13:05;;;;;;;16.55;9.55;;;;;;;-8.30;100.00;97559.38;4956694;28;20034;-70
2024/01/20 02:15:32;;;;;;;16.23;9.57;;;;;;;-8.28;100.00;97547.50;4959015;28;20118;-70
2024/01/20 02:17:57;;;;;;;19.60;10.77;;;;;;;-8.23;100.00;97546.81;4960625;28;20081;-69
2024/01/20 02:20:24;;;;;;;17.88;9.52;;;;;;;-8.28;100.00;97544.03;4952688;28;20074;-69
2024/01/20 02:22:49;;;;;;;23.58;11.07;;;;;;;-8.32;100.00;97551.66;4955004;28;20093;-70
2024/01/20 02:25:15;;;;;;;22.85;11.82;;;;;;;-8.33;100.00;97549.22;4954569;28;20042;-69
2024/01/20 02:27:41;;;;;;;22.60;9.85;;;;;;;-8.31;100.00;97542.63;4962778;28;20047;-70
2024/01/20 02:30:07;;;;;;;19.17;9.57;;;;;;;-8.35;100.00;97562.72;4954959;28;20474;-69
2024/01/20 02:32:33;;;;;;;21.38;9.85;;;;;;;-8.11;100.00;97563.63;4970933;28;20074;-70
2024/01/20 02:34:58;;;;;;;18.42;9.70;;;;;;;-8.12;100.00;97561.19;4957590;28;20046;-71
2024/01/20 02:37:23;;;;;;;17.45;10.18;;;;;;;-8.18;100.00;97570.06;4955163;28;20053;-69
2024/01/20 02:39:49;;;;;;;20.70;10.10;;;;;;;-8.28;100.00;97559.97;4960861;28;20126;-70
2024/01/20 02:42:14;;;;;;;19.10;10.63;;;;;;;-8.34;100.00;97566.97;4955244;28;20112;-70
2024/01/20 02:44:40;;;;;;;17.88;10.07;;;;;;;-8.17;100.00;97564.53;4975362;28;20043;-70
2024/01/20 02:47:05;;;;;;;17.08;9.98;;;;;;;-8.25;100.00;97554.19;4955915;28;20052;-69
2024/01/20 02:49:32;;;;;;;19.02;10.82;;;;;;;-8.34;100.00;97548.38;4953081;28;20105;-70
2024/01/20 02:51:57;;;;;;;18.45;10.40;;;;;;;-8.22;100.00;97547.63;4960548;28;20042;-70
2024/01/20 02:54:23;;;;;;;21.45;10.45;;;;;;;-8.06;100.00;97552.31;4954798;28;20269;-69
2024/01/20 02:56:48;;;;;;;18.48;10.48;;;;;;;-8.12;100.00;97564.66;4960538;28;20046;-70
2024/01/20 02:59:14;;;;;;;19.33;10.48;;;;;;;-8.08;100.00;97563.16;4955344;28;20035;-70
2024/01/20 03:01:39;;;;;;;17.90;10.15;;;;;;;-8.04;100.00;97568.06;4960190;28;20469;-70
2024/01/20 03:04:04;;;;;;;16.05;9.13;;;;;;;-8.06;100.00;97576.25;4955535;28;20050;-70
2024/01/20 03:06:31;;;;;;;15.75;8.82;;;;;;;-8.10;100.00;97578.53;4956204;28;20117;-70
2024/01/20 03:08:56;;;;;;;19.95;9.65;;;;;;;-7.81;100.00;97586.75;4961476;28;20566;-71
2024/01/20 03:11:22;;;;;;;16.45;8.95;;;;;;;-7.80;100.00;97575.03;4953215;28;20402;-70
2024/01/20 03:13:47;;;;;;;18.15;9.77;;;;;;;-7.98;100.00;97588.41;4959982;28;20034;-71
2024/01/20 03:16:12;;;;;;;16.25;9.38;;;;;;;-8.08;100.00;97583.63;4955094;28;20486;-70
2024/01/20 03:18:38;;;;;;;17.88;10.15;;;;;;;-8.22;100.00;97584.84;4959071;28;20047;-70
2024/01/20 03:21:04;;;;;;;21.33;10.10;;;;;;;-8.19;100.00;97587.88;4956144;28;20058;-71
2024/01/20 03:23:30;;;;;;;17.30;10.00;;;;;;;-8.35;100.00;97594.59;4959566;28;20046;-70
2024/01/20 03:25:55;;;;;;;17.83;9.85;;;;;;;-8.49;100.00;97601.94;4960704;28;20042;-70
2024/01/20 03:28:21;;;;;;;20.42;10.27;;;;;;;-8.48;100.00;97606.25;4954109;28;20046;-70
2024/01/20 03:30:47;;;;;;;17.83;9.60;;;;;;;-8.47;100.00;97605.19;4960449;28;20077;-70
2024/01/20 03:33:12;;;;;;;21.65;10.95;;;;;;;-8.58;100.00;97608.59;4954783;28;20520;-70
2024/01/20 03:35:37;;;;;;;22.90;10.23;;;;;;;-8.59;100.00;97614.13;4942887;28;20082;-71
2024/01/20 03:38:04;;;;;;;21.30;10.60;;;;;;;-8.52;100.00;97614.84;4957250;28;20031;-70
2024/01/20 03:40:29;;;;;;;19.95;11.23;;;;;;;-8.60;100.00;97615.97;4960299;28;20051;-71
2024/01/20 03:42:54;;;;;;;21.27;10.50;;;;;;;-8.79;100.00;97623.09;4961374;28;20050;-68
2024/01/20 03:45:20;;;;;;;21.27;11.27;;;;;;;-9.07;100.00;97621.75;4973550;28;20073;-68
2024/01/20 03:47:45;;;;;;;25.15;12.57;;;;;;;-9.21;100.00;97638.00;4958838;28;20053;-69
2024/01/20 03:50:11;;;;;;;21.52;11.18;;;;;;;-9.39;100.00;97638.75;4950270;28;20039;-70
2024/01/20 03:52:36;;;;;;;18.25;11.40;;;;;;;-9.47;100.00;97640.66;4963447;28;20051;-70
2024/01/20 03:55:02;;;;;;;18.05;10.00;;;;;;;-9.73;100.00;97646.13;4961764;28;20034;-68
2024/01/20 03:57:27;;;;;;;26.38;11.57;;;;;;;-9.95;100.00;97643.00;4962044;28;20169;-68
2024/01/20 03:59:53;;;;;;;26.00;11.20;;;;;;;-9.85;100.00;97653.94;4963063;28;20042;-68
2024/01/20 04:02:18;;;;;;;23.13;11.13;;;;;;;-9.74;100.00;97655.94;4957507;28;20034;-68
2024/01/20 04:04:43;;;;;;;23.45;11.32;;;;;;;-9.57;100.00;97661.53;4961928;28;20039;-68
2024/01/20 04:07:10;;;;;;;23.77;11.35;;;;;;;-9.69;100.00;97658.72;4957433;28;20039;-70
2024/01/20 04:09:35;;;;;;;22.42;11.38;;;;;;;-9.63;100.00;97657.09;4959071;28;20182;-71
2024/01/20 04:12:00;;;;;;;22.02;11.82;;;;;;;-10.00;100.00;97652.38;4963596;28;20031;-70
2024/01/20 04:14:26;;;;;;;18.63;11.30;;;;;;;-10.18;100.00;97652.25;4958605;28;20051;-70
2024/01/20 04:16:51;;;;;;;26.85;11.60;;;;;;;-10.13;100.00;97660.38;4963908;28;20520;-70
2024/01/20 04:19:17;;;;;;;24.73;12.43;;;;;;;-9.90;100.00;97656.41;4959580;28;20127;-69
2024/01/20 04:21:43;;;;;;;21.25;10.55;;;;;;;-9.90;100.00;97654.56;4963276;28;20100;-70
2024/01/20 04:24:08;;;;;;;19.67;11.38;;;;;;;-10.02;100.00;97651.78;4959399;28;20409;-67
2024/01/20 04:26:34;;;;;;;22.50;11.18;;;;;;;-10.05;100.00;97646.88;4964291;28;20053;-69
2024/01/20 04:28:59;;;;;;;18.20;10.23;;;;;;;-10.08;100.00;97657.09;4966591;28;20204;-70
2024/01/20 04:31:25;;;;;;;19.73;10.63;;;;;;;-9.86;100.00;97676.97;4962344;28;20038;-70
2024/01/20 04:33:53;;;;;;;20.42;11.35;;;;;;;-10.00;100.00;97678.88;4966320;28;20031;-70
2024/01/20 04:36:19;;;;;;;20.42;11.15;;;;;;;-10.20;100.00;97676.31;4959801;28;20062;-68
2024/01/20 04:38:44;;;;;;;21.40;10.45;;;;;;;-10.24;100.00;97677.75;4964534;28;20150;-68
2024/01/20 04:41:10;;;;;;;23.63;13.00;;;;;;;-10.18;100.00;97686.69;4959530;28;20058;-68
2024/01/20 04:43:35;;;;;;;22.98;10.18;;;;;;;-10.25;100.00;97683.25;4963429;28;20039;-70
2024/01/20 04:46:00;;;;;;;22.13;10.82;;;;;;;-10.06;100.00;97681.56;4983283;28;20034;-68
2024/01/20 04:48:26;;;;;;;21.33;10.88;;;;;;;-9.94;100.00;97687.00;4956456;28;20039;-69
2024/01/20 04:50:52;;;;;;;19.20;10.48;;;;;;;-9.87;100.00;97682.50;4945432;28;20376;-69
2024/01/20 04:53:17;;;;;;;22.15;11.85;;;;;;;-9.86;100.00;97674.31;4953406;28;20073;-70
2024/01/20 04:55:42;;;;;;;16.70;10.13;;;;;;;-10.00;100.00;97673.56;4962706;28;20051;-70
2024/01/20 04:58:08;;;;;;;21.27;11.50;;;;;;;-9.89;100.00;97666.78;4959299;28;20034;-70
2024/01/20 05:00:35;;;;;;;22.70;12.07;;;;;;;-9.47;100.00;97663.69;4963390;28;20135;-69
2024/01/20 05:03:01;;;;;;;21.17;11.38;;;;;;;-9.27;100.00;97669.69;4961288;28;20038;-69
2024/01/20 05:05:26;;;;;;;23.13;12.43;;;;;;;-9.24;100.00;97673.72;4958086;28;20054;-69
2024/01/20 05:07:51;;;;;;;18.50;10.75;;;;;;;-8.88;100.00;97680.19;4962233;28;20045;-69
2024/01/20 05:10:17;;;;;;;20.48;10.35;;;;;;;-8.75;100.00;97680.06;4952102;28;20038;-69
2024/01/20 05:12:42;;;;;;;22.92;12.20;;;;;;;-8.62;100.00;97686.28;4962700;28;20035;-69
2024/01/20 05:15:11;;;;;;;22.35;12.77;;;;;;;-8.50;100.00;97682.69;4957195;28;20043;-70
2024/01/20 05:17:37;;;;;;;25.17;12.30;;;;;;;-8.49;100.00;97691.47;4962209;28;20426;-71
2024/01/20 05:20:05;;;;;;;24.40;11.05;;;;;;;-8.39;100.00;97688.25;4958800;28;20505;-69
2024/01/20 05:22:31;;;;;;;24.50;13.38;;;;;;;-8.30;100.00;97695.75;4962494;28;20569;-69
2024/01/20 05:24:56;;;;;;;25.95;13.20;;;;;;;-8.32;100.00;97712.91;4963441;28;20042;-68
2024/01/20 05:27:22;;;;;;;22.98;11.45;;;;;;;-8.35;100.00;97711.53;4957625;28;22515;-69
2024/01/20 05:29:47;;;;;;;22.30;10.90;;;;;;;-8.27;100.00;97711.22;4962129;28;20142;-68
2024/01/20 05:32:15;;;;;;;26.60;10.63;;;;;;;-8.25;100.00;97716.31;4958127;28;20137;-68
2024/01/20 05:34:40;;;;;;;23.77;11.50;;;;;;;-8.29;100.00;97723.13;4961513;28;20073;-69
2024/01/20 05:37:05;;;;;;;23.15;11.23;;;;;;;-8.33;100.00;97724.59;4958374;28;20043;-69
2024/01/20 05:39:31;;;;;;;23.52;11.25;;;;;;;-8.45;100.00;97727.19;4962478;28;20046;-69
2024/01/20 05:41:56;;;;;;;23.88;11.88;;;;;;;-8.56;100.00;97726.06;4964266;28;20104;-69
2024/01/20 05:44:21;;;;;;;24.50;12.02;;;;;;;-8.57;100.00;97734.25;4959606;28;20396;-69
2024/01/20 05:46:47;;;;;;;19.73;10.70;;;;;;;-8.62;100.00;97740.22;4974961;28;20054;-69
2024/01/20 05:49:13;;;;;;;21.25;10.90;;;;;;;-8.69;100.00;97739.47;4955053;28;20402;-69
2024/01/20 05:51:38;;;;;;;33.78;18.23;;;;;;;-8.73;100.00;97735.59;4961170;28;20047;-69
2024/01/20 05:54:04;;;;;;;31.20;14.20;;;;;;;-8.77;100.00;97743.19;4958248;28;20102;-68
2024/01/20 05:56:29;;;;;;;45.53;21.55;;;;;;;-8.77;100.00;97739.72;4961882;28;20101;-69
2024/01/20 05:58:54;;;;;;;27.92;14.48;;;;;;;-8.81;100.00;97749.16;4960514;28;20039;-69
2024/01/20 06:01:20;;;;;;;31.48;15.15;;;;;;;-8.84;100.00;97747.75;4956738;28;20039;-69
2024/01/20 06:03:45;;;;;;;31.08;16.10;;;;;;;-8.89;100.00;97736.97;4961449;28;20052;-70
2024/01/20 06:06:11;;;;;;;32.03;14.70;;;;;;;-8.94;100.00;97734.97;4957068;28;20037;-69
2024/01/20 06:08:36;;;;;;;26.92;14.38;;;;;;;-8.95;100.00;97733.31;4961132;28;20138;-69
2024/01/20 06:11:02;;;;;;;27.23;14.05;;;;;;;-8.96;100.00;97742.34;4953235;28;20588;-68
2024/01/20 06:13:29;;;;;;;25.88;12.98;;;;;;;-8.76;100.00;97742.19;4958682;28;20053;-69
2024/01/20 06:15:55;;;;;;;26.83;16.95;;;;;;;-8.67;100.00;97735.56;4961183;28;20045;-68
2024/01/20 06:18:20;;;;;;;26.42;15.57;;;;;;;-8.57;100.00;97731.59;4957243;28;20039;-69
2024/01/20 06:20:45;;;;;;;23.25;12.75;;;;;;;-8.59;100.00;97736.31;4961657;28;20049;-70
2024/01/20 06:23:11;;;;;;;25.95;14.73;;;;;;;-8.64;100.00;97731.66;4955934;28;20038;-69
2024/01/20 06:25:36;;;;;;;24.27;15.35;;;;;;;-8.71;100.00;97729.06;4960726;28;20039;-71
2024/01/20 06:28:03;;;;;;;34.38;18.27;;;;;;;-8.76;100.00;97749.34;4961696;28;20073;-69
2024/01/20 06:30:28;;;;;;;26.95;14.65;;;;;;;-8.77;100.00;97753.00;4959001;28;20050;-70
2024/01/20 06:32:54;;;;;;;26.20;14.20;;;;;;;-8.76;100.00;97744.03;4961755;28;20035;-69
2024/01/20 06:35:19;;;;;;;25.80;16.17;;;;;;;-8.77;100.00;97745.84;4955488;28;20532;-70
2024/01/20 06:37:45;;;;;;;28.55;16.60;;;;;;;-8.82;100.00;97750.19;4961077;28;20113;-69
2024/01/20 06:40:11;;;;;;;28.48;14.52;;;;;;;-8.76;100.00;97757.31;4954767;28;20113;-69
2024/01/20 06:42:36;;;;;;;28.25;15.35;;;;;;;-8.72;100.00;97764.59;4960466;28;20437;-70
2024/01/20 06:45:02;;;;;;;28.42;14.13;;;;;;;-8.74;100.00;97768.53;4959103;28;20042;-70
2024/01/20 06:47:29;;;;;;;22.20;11.88;;;;;;;-8.71;100.00;97774.22;4977761;28;20043;-67
2024/01/20 06:49:55;;;;;;;26.60;11.02;;;;;;;-8.81;100.00;97776.53;4960256;28;20077;-69
2024/01/20 06:52:20;;;;;;;28.65;16.20;;;;;;;-8.83;100.00;97783.09;4954963;28;20086;-68
2024/01/20 06:54:46;;;;;;;24.02;14.00;;;;;;;-8.90;100.00;97777.81;4960715;28;20035;-69
2024/01/20 06:57:12;;;;;;;30.85;20.63;;;;;;;-9.02;100.00;97788.31;4955220;28;20100;-68
2024/01/20 06:59:37;;;;;;;21.67;13.75;;;;;;;-9.08;100.00;97784.66;4960497;28;20058;-68
2024/01/20 07:02:03;;;;;;;23.75;13.23;;;;;;;-9.19;100.00;97788.00;4957602;28;20574;-67
2024/01/20 07:04:29;;;;;;;28.42;15.18;;;;;;;-9.20;100.00;97794.38;4960790;28;20050;-68
2024/01/20 07:06:54;;;;;;;25.55;13.55;;;;;;;-9.19;100.00;97795.97;4960379;28;20109;-68
2024/01/20 07:09:20;;;;;;;24.42;13.00;;;;;;;-9.20;100.00;97790.88;4953103;28;20037;-71
2024/01/20 07:11:45;;;;;;;26.63;14.85;;;;;;;-9.14;100.00;97790.03;4956482;28;20041;-69
2024/01/20 07:14:11;;;;;;;37.42;21.27;;;;;;;-9.16;100.00;97784.94;4953616;28;20607;-68
2024/01/20 07:16:36;;;;;;;22.73;16.35;;;;;;;-9.24;100.00;97791.31;4960149;28;20493;-68
2024/01/20 07:19:02;;;;;;;24.98;12.70;;;;;;;-9.14;100.00;97782.09;4954687;28;20030;-69
2024/01/20 07:21:27;;;;;;;22.08;11.73;;;;;;;-9.12;100.00;97786.13;4958480;28;20477;-69
2024/01/20 07:23:53;;;;;;;22.95;11.13;;;;;;;-8.99;100.00;97795.03;4960304;28;20157;-69
2024/01/20 07:26:18;;;;;;;20.88;10.98;;;;;;;-9.03;100.00;97792.00;4955339;28;20042;-69
2024/01/20 07:28:43;;;;;;;23.25;12.02;;;;;;;-9.00;100.00;97796.06;4999894;23;20055;-72
2024/01/20 07:31:09;;;;;;;16.42;9.40;;;;;;;-8.94;100.00;97804.00;4986515;28;20038;-72
2024/01/20 07:33:34;;;;;;;20.67;10.60;;;;;;;-8.86;100.00;97802.91;4980996;28;20113;-72
2024/01/20 07:36:00;;;;;;;24.35;11.68;;;;;;;-8.75;100.00;97801.41;4988710;28;20053;-74
2024/01/20 07:38:26;;;;;;;23.42;10.73;;;;;;;-8.66;100.00;97805.41;4968517;28;20501;-73
2024/01/20 07:40:54;;;;;;;18.40;10.15;;;;;;;-8.59;100.00;97813.34;4960521;28;20053;-74
2024/01/20 07:43:21;;;;;;;20.50;10.05;;;;;;;-8.53;100.00;97812.50;4953132;28;20201;-71
2024/01/20 07:45:46;;;;;;;19.77;10.85;;;;;;;-8.38;100.00;97828.06;4958005;28;20088;-72
2024/01/20 07:48:11;;;;;;;16.45;9.35;;;;;;;-8.15;100.00;97830.94;4953102;28;20504;-73
2024/01/20 07:50:38;;;;;;;19.17;11.20;;;;;;;-7.79;100.00;97825.91;4959035;28;20042;-72
2024/01/20 07:53:04;;;;;;;15.68;9.38;;;;;;;-7.47;100.00;97828.38;4954184;28;20043;-74
2024/01/20 07:55:29;;;;;;;15.77;8.68;;;;;;;-7.41;100.00;97827.50;4965421;28;20074;-73
2024/01/20 07:57:54;;;;;;;18.35;9.30;;;;;;;-7.34;100.00;97823.72;4968933;28;20489;-74
2024/01/20 08:00:20;;;;;;;16.33;8.95;;;;;;;-7.17;100.00;97825.75;4954217;28;20039;-74
2024/01/20 08:02:45;;;;;;;15.30;8.70;;;;;;;-7.07;100.00;97830.56;4960061;28;20047;-75
2024/01/20 08:05:11;;;;;;;10.85;7.13;;;;;;;-6.88;100.00;97826.78;4953212;28;20047;-72
2024/01/20 08:07:36;;;;;;;31.08;15.27;;;;;;;-6.70;100.00;97831.25;4959468;28;20074;-73
2024/01/20 08:10:02;;;;;;;17.90;9.55;;;;;;;-6.73;100.00;97834.41;4952223;28;20101;-70
2024/01/20 08:12:27;;;;;;;14.95;8.48;;;;;;;-6.69;100.00;97832.88;4957611;28;20058;-71
2024/01/20 08:14:52;;;;;;;17.83;10.65;;;;;;;-6.40;100.00;97847.19;4956622;28;20481;-70
2024/01/20 08:17:18;;;;;;;14.70;8.13;;;;;;;-6.10;100.00;97848.16;4954756;28;20046;-71
2024/01/20 08:19:45;;;;;;;24.83;12.35;;;;;;;-6.06;100.00;97844.00;4959545;28;20194;-71
2024/01/20 08:22:12;;;;;;;17.52;10.70;;;;;;;-6.06;100.00;97857.34;4955021;28;20126;-71
2024/01/20 08:24:37;;;;;;;17.02;9.30;;;;;;;-6.04;100.00;97857.94;4957226;28;20050;-73
2024/01/20 08:27:03;;;;;;;14.38;9.70;;;;;;;-6.05;100.00;97858.94;4965510;28;20039;-76
2024/01/20 08:29:29;;;;;;;16.83;9.93;;;;;;;-6.11;100.00;97859.88;4968017;28;20050;-73
2024/01/20 08:31:54;;;;;;;15.00;8.38;;;;;;;-6.10;100.00;97861.50;4959000;28;20413;-72
2024/01/20 08:34:20;;;;;;;15.30;8.95;;;;;;;-6.19;100.00;97869.84;4953823;28;20402;-71
2024/01/20 08:36:45;;;;;;;17.63;8.88;;;;;;;-5.96;100.00;97863.72;4961800;28;20046;-72
2024/01/20 08:39:10;;;;;;;13.43;8.73;;;;;;;-5.71;100.00;97864.50;4957803;28;20062;-72
2024/01/20 08:41:36;;;;;;;15.73;8.60;;;;;;;-5.81;100.00;97859.75;4961582;28;20062;-72
2024/01/20 08:44:01;;;;;;;13.95;9.57;;;;;;;-5.56;100.00;97870.19;4961078;28;20038;-73
2024/01/20 08:46:26;;;;;;;13.65;8.25;;;;;;;-5.59;100.00;97871.44;4957212;28;20552;-73
2024/01/20 08:48:52;;;;;;;14.50;8.35;;;;;;;-5.58;100.00;97883.75;4959202;28;20108;-72
2024/01/20 08:51:17;;;;;;;12.88;8.10;;;;;;;-5.23;100.00;97885.56;4958121;28;20272;-72
2024/01/20 08:53:43;;;;;;;16.42;10.02;;;;;;;-5.03;100.00;97889.69;4963251;28;20068;-72
2024/01/20 08:56:08;;;;;;;15.48;9.32;;;;;;;-5.13;100.00;97898.34;4960010;28;20732;-72
2024/01/20 08:58:34;;;;;;;17.23;9.25;;;;;;;-5.14;100.00;97898.56;4965433;28;20042;-72
2024/01/20 09:00:59;;;;;;;14.00;8.57;;;;;;;-5.51;100.00;97886.31;4965179;28;20078;-73
2024/01/20 09:03:25;;;;;;;14.88;8.77;;;;;;;-5.57;100.00;97887.25;4957974;28;20556;-72
2024/01/20 09:05:50;;;;;;;18.75;9.98;;;;;;;-5.35;100.00;97891.97;4964039;28;20078;-74
2024/01/20 09:08:15;;;;;;;14.68;9.90;;;;;;;-5.12;100.00;97891.91;4958583;28;20043;-71
2024/01/20 09:10:41;;;;;;;17.58;10.55;;;;;;;-5.23;100.00;97896.25;4954822;28;20141;-71
2024/01/20 09:13:07;;;;;;;15.38;9.13;;;;;;;-5.25;100.00;97898.34;4958728;28;20049;-72
2024/01/20 09:15:32;;;;;;;14.32;9.02;;;;;;;-4.92;100.00;97898.72;4961005;28;20039;-74
2024/01/20 09:17:58;;;;;;;15.10;9.05;;;;;;;-5.12;100.00;97902.59;4961657;28;20493;-73
2024/01/20 09:20:23;;;;;;;14.90;9.35;;;;;;;-5.07;100.00;97908.06;4957402;28;20896;-72
2024/01/20 09:22:48;;;;;;;14.13;8.82;;;;;;;-4.64;100.00;97903.28;4962486;28;20065;-77
2024/01/20 09:25:14;;;;;;;17.88;9.15;;;;;;;-4.62;100.00;97910.00;4961901;28;20086;-74
2024/01/20 09:27:39;;;;;;;16.75;10.73;;;;;;;-4.71;100.00;97916.78;4972284;28;20046;-72
2024/01/20 09:30:05;;;;;;;16.85;10.18;;;;;;;-4.80;100.00;97911.00;4979541;28;20050;-77
2024/01/20 09:32:33;;;;;;;17.00;9.50;;;;;;;-4.79;100.00;97922.50;4962813;28;20046;-74
2024/01/20 09:34:59;;;;;;;13.80;8.35;;;;;;;-4.99;100.00;97925.56;4960456;28;20051;-74
2024/01/20 09:37:25;;;;;;;18.85;11.18;;;;;;;-4.93;100.00;97921.16;4957625;28;20137;-71
2024/01/20 09:39:50;;;;;;;20.55;10.80;;;;;;;-4.86;100.00;97917.31;4960303;28;20134;-74
2024/01/20 09:42:16;;;;;;;14.68;10.35;;;;;;;-4.75;100.00;97909.47;4956077;28;20719;-72
2024/01/20 09:44:43;;;;;;;17.67;10.68;;;;;;;-4.75;100.00;97915.66;4962273;28;20133;-73
2024/01/20 09:47:12;;;;;;;17.15;9.70;;;;;;;-4.70;100.00;97909.56;4956651;28;20034;-72
2024/01/20 09:49:38;;;;;;;17.85;10.77;;;;;;;-4.63;100.00;97897.72;4959294;28;20055;-71
2024/01/20 09:52:15;;;;;;;20.25;10.23;;;;;;;-4.46;100.00;97911.09;4960788;28;20129;-77
2024/01/20 09:55:16;;;;;;;17.77;10.75;;;;;;;-4.57;100.00;97913.81;4963015;28;20046;-73
2024/01/20 09:57:43;;;;;;;20.23;10.48;;;;;;;-4.61;100.00;97911.66;4954091;28;20130;-72
2024/01/20 10:00:10;;;;;;;20.60;12.43;;;;;;;-4.46;100.00;97916.47;4956490;28;20713;-70
2024/01/20 10:02:37;;;;;;;22.65;12.20;;;;;;;-4.43;100.00;97920.50;4961447;28;20086;-71
2024/01/20 10:05:06;;;;;;;23.30;11.75;;;;;;;-4.35;100.00;97924.66;4959048;28;20055;-76
2024/01/20 10:07:31;;;;;;;18.40;10.63;;;;;;;-4.19;100.00;97926.56;4960245;28;20085;-73
2024/01/20 10:09:57;;;;;;;26.67;13.45;;;;;;;-3.56;100.00;97921.16;4955114;28;20510;-73
2024/01/20 10:12:23;;;;;;;17.85;10.50;;;;;;;-3.87;100.00;97937.53;4955462;28;20387;-71
2024/01/20 10:14:49;;;;;;;18.90;9.77;;;;;;;-3.74;100.00;97938.28;4960917;28;20113;-71
2024/01/20 10:17:15;;;;;;;20.80;10.10;;;;;;;-3.82;100.00;97934.13;4956669;28;20049;-71
2024/01/20 10:19:40;;;;;;;17.73;10.90;;;;;;;-3.93;100.00;97932.34;4960482;28;20051;-71
2024/01/20 10:22:09;;;;;;;18.65;12.80;;;;;;;-4.03;100.00;97930.31;4952807;28;20061;-73
2024/01/20 10:24:48;;;;;;;18.13;12.02;;;;;;;-3.79;100.00;97930.16;4968842;28;20031;-76
2024/01/20 10:27:18;;;;;;;18.20;10.48;;;;;;;-3.88;100.00;97929.75;4968585;28;20043;-71
2024/01/20 10:29:45;;;;;;;;;;;;;;;-3.88;100.00;97925.19;4961782;28;20078;-72
2024/01/20 10:32:10;;;;;;;16.80;9.05;;;;;;;-4.01;100.00;97935.44;4958495;28;19922;-73
2024/01/20 10:34:35;;;;;;;17.23;10.70;;;;;;;-3.74;100.00;97923.03;4960623;28;20134;-74
2024/01/20 10:37:10;;;;;;;18.80;10.23;;;;;;;-3.84;100.00;97933.56;4959248;28;20046;-73
2024/01/20 10:39:41;;;;;;;19.25;12.10;;;;;;;-3.72;100.00;97936.97;4958869;28;20043;-74
2024/01/20 10:42:09;;;;;;;22.33;10.48;;;;;;;-3.61;100.00;97924.53;4955725;28;20101;-72
2024/01/20 10:44:38;;;;;;;16.63;10.33;;;;;;;-3.75;100.00;97929.41;4958895;28;20054;-74
2024/01/20 10:47:06;;;;;;;17.63;10.85;;;;;;;-3.81;100.00;97935.75;4941605;28;20142;-75
2024/01/20 10:49:33;;;;;;;16.75;10.23;;;;;;;-3.79;100.00;97922.94;4958991;28;20143;-75
2024/01/20 10:51:58;;;;;;;17.27;10.95;;;;;;;-3.63;100.00;97924.00;4960743;28;20046;-73
2024/01/20 10:54:24;;;;;;;17.85;10.68;;;;;;;-3.48;100.00;97916.16;4954731;28;20469;-74
2024/01/20 10:56:50;;;;;;;17.05;10.45;;;;;;;-3.59;100.00;97914.41;4961226;28;20061;-74
2024/01/20 10:59:17;;;;;;;18.48;10.95;;;;;;;-3.82;100.00;97920.72;4971140;28;20035;-75
2024/01/20 11:01:45;;;;;;;19.90;10.85;;;;;;;-3.73;100.00;97913.09;4965453;28;20524;-74
2024/01/20 11:04:17;;;;;;;21.27;12.15;;;;;;;-3.62;100.00;97906.03;4956256;28;20533;-74
2024/01/20 11:06:43;;;;;;;20.80;11.38;;;;;;;-3.33;100.00;97914.75;4958751;28;20568;-74